Hopedale, Ohio
Current Conditions -  °F | °C
As of 11:53 AM on Thursday 27 Nov 2014 (Local Time) from KHLG Reporting Station
Overcast Overcast  
Wind Chill: 25°   Ceiling: 1800
Heat Index: 33°   Visibility: 9mi
Dew Point: 27°   Wind: 9mph
Humidity: 78%   Direction: 270°W
Pressure: 30.09"   Gusts: NA
Location:  40.33°N, 80.9°W
Report Text: KHLG 271653Z 27008KT 9SM BKN018 OVC025 01/M03 A3009 RMK AO2 SLP203 T00061028
Loading
Personal Weather Stations






























Interactive Weather Map New forecast layout! Learn more

10-Day Weather Forecast

Advertisements
Track Severe Weather on mobile